createdAt,value
2023-04-03T00:00:32.811Z,50.99
2023-04-03T00:02:59.758Z,51.29
2023-04-03T00:05:26.521Z,52.38
2023-04-03T00:07:53.293Z,51.80
2023-04-03T00:10:20.082Z,52.09
2023-04-03T00:12:46.752Z,53.04
2023-04-03T00:15:13.577Z,52.56
2023-04-03T00:17:40.437Z,53.24
2023-04-03T00:20:07.755Z,53.28
2023-04-03T00:22:34.409Z,53.18
2023-04-03T00:25:01.077Z,53.62
2023-04-03T00:27:28.009Z,53.35
2023-04-03T00:29:54.620Z,53.21
2023-04-03T00:32:21.311Z,53.04
2023-04-03T00:34:48.009Z,53.63
2023-04-03T00:37:14.961Z,50.99
2023-04-03T00:39:42.830Z,53.30
2023-04-03T00:42:09.681Z,53.19
2023-04-03T00:44:38.654Z,52.88
2023-04-03T00:47:08.104Z,52.84
2023-04-03T00:49:36.044Z,52.77
2023-04-03T00:52:03.055Z,52.50
2023-04-03T00:54:30.423Z,51.97
2023-04-03T00:56:58.816Z,52.27
2023-04-03T00:59:31.478Z,53.13
2023-04-03T01:02:00.297Z,51.30
2023-04-03T01:04:31.804Z,52.27
2023-04-03T01:07:03.393Z,53.39
2023-04-03T01:09:30.732Z,53.49
2023-04-03T01:12:17.805Z,52.42
2023-04-03T01:14:47.133Z,53.43
2023-04-03T01:17:38.839Z,54.04
2023-04-03T01:20:36.813Z,54.10
2023-04-03T01:23:18.091Z,53.56
2023-04-03T01:25:50.668Z,53.79
2023-04-03T01:28:21.426Z,54.05
2023-04-03T01:31:03.808Z,53.96
2023-04-03T01:33:33.823Z,53.25
2023-04-03T01:36:01.018Z,53.38
2023-04-03T01:38:28.442Z,53.44
2023-04-03T01:40:55.204Z,53.03
2023-04-03T01:43:22.054Z,53.34
2023-04-03T01:45:50.400Z,52.31
2023-04-03T01:48:17.893Z,52.65
2023-04-03T01:50:44.536Z,54.14
2023-04-03T01:53:11.207Z,53.52
2023-04-03T01:55:37.917Z,53.29
2023-04-03T01:58:04.564Z,53.32
2023-04-03T02:00:31.796Z,52.98
2023-04-03T02:02:58.671Z,53.58
2023-04-03T02:05:26.530Z,53.16
2023-04-03T02:07:53.333Z,53.67
2023-04-03T02:10:19.978Z,53.94
2023-04-03T02:12:46.876Z,53.13
2023-04-03T02:15:13.755Z,52.38
2023-04-03T02:17:40.830Z,53.01
2023-04-03T02:20:08.299Z,53.44
2023-04-03T02:22:35.620Z,54.83
2023-04-03T02:25:02.493Z,54.21
2023-04-03T02:27:29.144Z,53.94
2023-04-03T02:29:55.968Z,53.99
2023-04-03T02:32:22.669Z,53.31
2023-04-03T02:34:49.718Z,53.85
2023-04-03T02:37:16.568Z,53.84
2023-04-03T02:39:45.777Z,53.86
2023-04-03T02:42:12.493Z,53.88
2023-04-03T02:44:39.957Z,54.54
2023-04-03T02:47:06.840Z,54.46
2023-04-03T02:49:33.684Z,53.56
2023-04-03T02:52:00.373Z,53.80
2023-04-03T02:54:29.688Z,53.34
2023-04-03T02:56:59.118Z,54.06
2023-04-03T02:59:26.140Z,54.19
2023-04-03T03:01:53.353Z,54.14
2023-04-03T03:04:20.260Z,53.93
2023-04-03T03:06:47.833Z,53.65
2023-04-03T03:09:14.869Z,53.70
2023-04-03T03:11:43.147Z,53.65
2023-04-03T03:14:09.942Z,52.69
2023-04-03T03:16:36.656Z,54.10
2023-04-03T03:19:03.573Z,54.30
2023-04-03T03:21:31.850Z,54.29
2023-04-03T03:23:59.357Z,54.59
2023-04-03T03:26:27.385Z,54.35
2023-04-03T03:28:55.402Z,52.80
2023-04-03T03:31:22.133Z,53.76
2023-04-03T03:33:49.490Z,53.65
2023-04-03T03:36:16.495Z,52.70
2023-04-03T03:38:43.250Z,53.39
2023-04-03T03:41:10.542Z,52.67
2023-04-03T03:43:37.669Z,54.95
2023-04-03T03:46:06.456Z,53.81
2023-04-03T03:48:33.159Z,53.67
2023-04-03T03:50:59.753Z,54.85
2023-04-03T03:53:30.624Z,54.83
2023-04-03T03:56:01.964Z,54.84
2023-04-03T03:58:30.648Z,54.23
2023-04-03T04:00:57.818Z,54.20
2023-04-03T04:03:24.981Z,53.70
2023-04-03T04:05:52.345Z,53.41
2023-04-03T04:08:18.995Z,54.10
2023-04-03T04:10:46.148Z,53.74
2023-04-03T04:13:15.417Z,54.40
2023-04-03T04:15:43.685Z,53.27
2023-04-03T04:18:10.602Z,51.87
2023-04-03T04:20:37.762Z,54.67
2023-04-03T04:23:04.796Z,54.02
2023-04-03T04:25:31.950Z,54.21
2023-04-03T04:27:58.787Z,54.04
2023-04-03T04:30:25.499Z,53.62
2023-04-03T04:32:52.467Z,53.58
2023-04-03T04:35:19.227Z,54.03
2023-04-03T04:37:48.966Z,53.18
2023-04-03T04:40:16.112Z,54.73
2023-04-03T04:42:43.365Z,57.27
2023-04-03T04:45:10.837Z,59.93
2023-04-03T04:47:39.358Z,60.23
2023-04-03T04:50:06.751Z,59.81
2023-04-03T04:52:33.797Z,59.48
2023-04-03T04:55:00.813Z,60.78
2023-04-03T04:57:27.886Z,63.39
2023-04-03T04:59:54.971Z,63.20
2023-04-03T05:02:21.922Z,63.99
2023-04-03T05:04:51.236Z,61.76
2023-04-03T05:07:21.788Z,61.14
2023-04-03T05:09:48.661Z,60.92
2023-04-03T05:12:17.834Z,60.90
2023-04-03T05:14:50.735Z,60.09
2023-04-03T05:17:17.367Z,59.60
2023-04-03T05:19:49.627Z,58.48
2023-04-03T05:22:17.758Z,59.39
2023-04-03T05:24:45.371Z,59.35
2023-04-03T05:27:12.563Z,59.91
2023-04-03T05:29:45.395Z,59.48
2023-04-03T05:32:18.015Z,58.20
2023-04-03T05:34:50.452Z,58.84
2023-04-03T05:37:19.570Z,60.04
2023-04-03T05:39:46.839Z,60.08
2023-04-03T05:42:14.786Z,59.18
2023-04-03T05:44:41.821Z,60.04
2023-04-03T05:47:08.484Z,59.74
2023-04-03T05:49:36.443Z,60.15
2023-04-03T05:52:05.876Z,60.07
2023-04-03T05:54:33.463Z,59.69
2023-04-03T05:57:19.210Z,58.64
2023-04-03T05:59:48.531Z,57.79
2023-04-03T06:02:21.301Z,58.16
2023-04-03T06:04:50.209Z,57.56
2023-04-03T06:07:23.578Z,58.48
2023-04-03T06:09:53.944Z,57.65
2023-04-03T06:12:21.064Z,57.86
2023-04-03T06:14:47.788Z,58.76
2023-04-03T06:17:17.469Z,59.91
2023-04-03T06:19:44.779Z,61.56
2023-04-03T06:22:12.735Z,61.00
2023-04-03T06:24:41.386Z,60.24
2023-04-03T06:27:08.230Z,60.56
2023-04-03T06:29:35.325Z,60.69
2023-04-03T06:32:03.704Z,60.62
2023-04-03T06:34:30.392Z,59.52
2023-04-03T06:36:57.564Z,59.78
2023-04-03T06:39:24.476Z,60.76
2023-04-03T06:41:51.844Z,60.16
2023-04-03T06:44:26.476Z,59.92
2023-04-03T06:46:55.309Z,59.96
2023-04-03T06:49:22.559Z,60.16
2023-04-03T06:51:49.342Z,60.16
2023-04-03T06:54:16.107Z,60.00
2023-04-03T06:56:43.226Z,59.56
2023-04-03T06:59:11.403Z,59.09
2023-04-03T07:01:38.263Z,58.91
2023-04-03T07:04:05.057Z,59.11
2023-04-03T07:06:32.823Z,58.56
2023-04-03T07:08:59.744Z,58.44
2023-04-03T07:11:27.222Z,58.70
2023-04-03T07:13:54.764Z,58.50
2023-04-03T07:16:21.724Z,58.65
2023-04-03T07:18:48.515Z,58.82
2023-04-03T07:21:15.335Z,58.88
2023-04-03T07:23:41.912Z,59.15
2023-04-03T07:26:09.141Z,58.79
2023-04-03T07:28:37.563Z,57.94
2023-04-03T07:31:11.883Z,58.87
2023-04-03T07:33:39.047Z,58.77
2023-04-03T07:36:08.302Z,57.04
2023-04-03T07:38:36.668Z,57.46
2023-04-03T07:41:03.829Z,57.37
2023-04-03T07:43:30.491Z,57.10
2023-04-03T07:45:57.199Z,56.98
2023-04-03T07:48:27.640Z,56.70
2023-04-03T07:50:54.343Z,57.22
2023-04-03T07:53:21.013Z,56.76
2023-04-03T07:55:49.297Z,56.50
2023-04-03T07:58:18.708Z,56.24
2023-04-03T08:00:46.132Z,56.25
2023-04-03T08:03:13.958Z,56.21
2023-04-03T08:05:45.425Z,56.83
2023-04-03T08:08:13.493Z,56.53
2023-04-03T08:10:40.373Z,56.80
2023-04-03T08:13:08.109Z,57.23
2023-04-03T08:15:34.845Z,57.68
2023-04-03T08:18:01.843Z,58.91
2023-04-03T08:20:29.044Z,61.30
2023-04-03T08:22:55.840Z,59.83
2023-04-03T08:25:22.545Z,60.07
2023-04-03T08:27:49.303Z,59.73
2023-04-03T08:30:17.182Z,59.14
2023-04-03T08:32:45.129Z,58.64
2023-04-03T08:35:12.551Z,59.14
2023-04-03T08:37:40.456Z,58.91
2023-04-03T08:40:12.092Z,57.74
2023-04-03T08:42:48.944Z,57.67
2023-04-03T08:45:45.168Z,57.73
2023-04-03T08:48:18.140Z,57.90
2023-04-03T08:50:48.180Z,60.31
2023-04-03T08:53:22.560Z,61.19
2023-04-03T08:55:51.813Z,61.41
2023-04-03T08:58:25.441Z,61.46
2023-04-03T09:01:05.021Z,61.38
2023-04-03T09:03:35.379Z,60.40
2023-04-03T09:06:08.105Z,60.54
2023-04-03T09:08:44.159Z,60.42
2023-04-03T09:11:17.276Z,60.49
2023-04-03T09:13:57.857Z,60.27
2023-04-03T09:16:52.806Z,60.18
2023-04-03T09:19:43.027Z,60.17
2023-04-03T09:22:21.091Z,60.46
2023-04-03T09:24:54.592Z,62.36
2023-04-03T09:27:21.444Z,61.26
2023-04-03T09:29:48.415Z,61.88
2023-04-03T09:32:37.469Z,63.14
2023-04-03T09:35:20.555Z,62.56
2023-04-03T09:38:00.024Z,64.00
2023-04-03T09:40:26.838Z,63.79
2023-04-03T09:43:00.926Z,63.74
2023-04-03T09:45:30.278Z,63.81
2023-04-03T09:48:19.366Z,63.69
2023-04-03T09:50:57.191Z,64.09
2023-04-03T09:53:44.711Z,63.53
2023-04-03T09:56:17.211Z,64.67
2023-04-03T09:58:50.782Z,64.69
2023-04-03T10:01:36.434Z,64.90
2023-04-03T10:04:14.159Z,64.99
2023-04-03T10:06:47.956Z,64.89
2023-04-03T10:09:32.814Z,65.42
2023-04-03T10:12:10.920Z,65.33
2023-04-03T10:14:39.742Z,64.74
2023-04-03T10:17:25.468Z,64.40
2023-04-03T10:20:10.326Z,64.70
2023-04-03T10:23:02.049Z,63.40
2023-04-03T10:25:45.873Z,63.07
2023-04-03T10:28:30.502Z,62.72
2023-04-03T10:31:16.553Z,62.04
2023-04-03T10:34:20.905Z,62.48
2023-04-03T10:36:56.747Z,62.41
2023-04-03T10:39:49.952Z,62.51
2023-04-03T10:42:23.712Z,61.55
2023-04-03T10:45:08.133Z,61.73
2023-04-03T10:48:16.002Z,61.40
2023-04-03T10:51:01.484Z,61.53
2023-04-03T10:53:45.628Z,61.99
2023-04-03T10:56:33.734Z,61.89
2023-04-03T10:59:11.205Z,61.91
2023-04-03T11:01:42.054Z,62.73
2023-04-03T11:04:11.545Z,61.71
2023-04-03T11:06:44.251Z,62.55
2023-04-03T11:09:22.440Z,62.30
2023-04-03T11:11:52.717Z,62.53
2023-04-03T11:14:28.406Z,63.82
2023-04-03T11:17:20.014Z,64.09
2023-04-03T11:19:55.896Z,63.50
2023-04-03T11:22:44.266Z,63.47
2023-04-03T11:25:11.695Z,63.50
2023-04-03T11:27:43.436Z,63.55
2023-04-03T11:30:49.353Z,62.63
2023-04-03T11:33:43.920Z,63.62
2023-04-03T11:36:28.167Z,63.23
2023-04-03T11:39:12.927Z,63.45
2023-04-03T11:41:43.070Z,62.33
2023-04-03T11:44:42.199Z,62.74
2023-04-03T11:47:13.802Z,63.23
2023-04-03T11:50:02.243Z,61.74
2023-04-03T11:52:44.343Z,61.56
2023-04-03T11:55:20.308Z,62.05
2023-04-03T11:58:02.919Z,61.14
2023-04-03T12:00:44.906Z,60.26
2023-04-03T12:03:27.481Z,61.20
2023-04-03T12:06:08.071Z,61.15
2023-04-03T12:08:35.083Z,61.57
2023-04-03T12:11:13.897Z,60.52
2023-04-03T12:13:40.676Z,61.52
2023-04-03T12:16:27.283Z,61.30
2023-04-03T12:18:54.034Z,60.61
2023-04-03T12:21:41.057Z,60.20
2023-04-03T12:24:10.832Z,60.70
2023-04-03T12:26:48.546Z,60.33
2023-04-03T12:29:22.485Z,60.54
2023-04-03T12:32:04.439Z,60.02
2023-04-03T12:34:40.214Z,60.47
2023-04-03T12:37:22.821Z,59.83
2023-04-03T12:39:56.803Z,60.15
2023-04-03T12:42:42.069Z,59.54
2023-04-03T12:45:23.263Z,58.23
2023-04-03T12:47:53.260Z,59.91
2023-04-03T12:50:31.832Z,58.78
2023-04-03T12:53:21.651Z,59.29
2023-04-03T12:55:48.344Z,58.90
2023-04-03T12:58:27.397Z,58.28
2023-04-03T13:01:02.493Z,58.43
2023-04-03T13:03:30.318Z,58.74
2023-04-03T13:06:02.922Z,57.94
2023-04-03T13:08:29.788Z,58.07
2023-04-03T13:11:02.058Z,59.03
2023-04-03T13:13:28.973Z,58.39
2023-04-03T13:15:56.658Z,58.36
2023-04-03T13:18:33.122Z,57.46
2023-04-03T13:21:04.300Z,58.18
2023-04-03T13:23:33.041Z,58.23
2023-04-03T13:26:04.340Z,58.06
2023-04-03T13:28:33.018Z,56.87
2023-04-03T13:31:18.995Z,58.57
2023-04-03T13:33:57.010Z,57.27
2023-04-03T13:36:49.768Z,58.37
2023-04-03T13:39:19.320Z,57.23
2023-04-03T13:41:48.778Z,57.00
2023-04-03T13:44:35.636Z,57.02
2023-04-03T13:47:20.762Z,56.99
2023-04-03T13:49:59.930Z,57.25
2023-04-03T13:52:36.898Z,58.06
2023-04-03T13:55:25.805Z,57.77
2023-04-03T13:58:17.968Z,56.80
2023-04-03T14:00:53.228Z,57.74
2023-04-03T14:03:31.168Z,57.37
2023-04-03T14:05:58.328Z,57.86
2023-04-03T14:08:36.030Z,57.80
2023-04-03T14:11:16.387Z,56.92
2023-04-03T14:13:44.434Z,56.86
2023-04-03T14:16:21.400Z,57.43
2023-04-03T14:18:49.664Z,55.83
2023-04-03T14:21:17.935Z,56.21
2023-04-03T14:23:46.790Z,56.06
2023-04-03T14:26:20.081Z,55.60
2023-04-03T14:28:48.918Z,56.65
2023-04-03T14:31:17.202Z,56.86
2023-04-03T14:33:44.969Z,56.76
2023-04-03T14:38:48.781Z,56.43
2023-04-03T14:41:18.347Z,57.49
2023-04-03T14:43:46.142Z,56.95
2023-04-03T14:46:26.367Z,56.58
2023-04-03T14:48:54.469Z,57.56
2023-04-03T14:51:21.528Z,56.77
2023-04-03T14:53:50.146Z,56.75
2023-04-03T14:56:23.167Z,57.42
2023-04-03T14:58:54.713Z,56.35
2023-04-03T15:01:21.819Z,56.40
2023-04-03T15:03:49.837Z,56.79
2023-04-03T15:06:17.284Z,56.44
2023-04-03T15:08:44.885Z,57.13
2023-04-03T15:11:12.170Z,57.61
2023-04-03T15:13:40.149Z,56.43
2023-04-03T15:16:16.800Z,56.66
2023-04-03T15:18:44.247Z,58.14
2023-04-03T15:21:10.882Z,57.58
2023-04-03T15:23:37.526Z,57.74
2023-04-03T15:26:05.671Z,57.55
2023-04-03T15:28:36.336Z,57.87
2023-04-03T15:31:03.413Z,58.30
2023-04-03T15:33:30.663Z,57.99
2023-04-03T15:36:07.417Z,57.23
2023-04-03T15:38:39.235Z,58.17
2023-04-03T15:41:06.541Z,57.98
2023-04-03T15:43:34.806Z,58.41
2023-04-03T15:46:02.600Z,57.95
2023-04-03T15:48:29.926Z,58.50
2023-04-03T15:50:57.895Z,58.77
2023-04-03T15:53:25.961Z,59.09
2023-04-03T15:55:52.633Z,59.07
2023-04-03T15:58:19.438Z,59.36
2023-04-03T16:00:46.465Z,59.24
2023-04-03T16:03:17.474Z,59.02
2023-04-03T16:05:44.941Z,58.46
2023-04-03T16:08:11.830Z,59.31
2023-04-03T16:10:41.416Z,59.64
2023-04-03T16:13:08.452Z,59.57
2023-04-03T16:15:38.342Z,59.59
2023-04-03T16:18:05.667Z,59.55
2023-04-03T16:20:32.848Z,60.15
2023-04-03T16:23:01.192Z,60.50
2023-04-03T16:25:28.356Z,60.50
2023-04-03T16:27:54.996Z,60.83
2023-04-03T16:30:21.680Z,60.74
2023-04-03T16:32:48.553Z,61.31
2023-04-03T16:35:15.346Z,61.44
2023-04-03T16:37:42.103Z,60.95
2023-04-03T16:40:09.686Z,60.70
2023-04-03T16:42:37.945Z,60.58
2023-04-03T16:45:06.906Z,61.32
2023-04-03T16:47:33.966Z,61.83
2023-04-03T16:50:01.114Z,61.79
2023-04-03T16:52:28.101Z,62.25
2023-04-03T16:54:56.637Z,62.54
2023-04-03T16:57:25.626Z,63.39
2023-04-03T16:59:53.434Z,62.83
2023-04-03T17:02:21.927Z,63.44
2023-04-03T17:04:50.709Z,63.82
2023-04-03T17:07:22.773Z,64.17
2023-04-03T17:09:49.642Z,64.04
2023-04-03T17:12:17.114Z,63.39
2023-04-03T17:14:46.986Z,63.12
2023-04-03T17:17:15.490Z,62.99
2023-04-03T17:19:44.187Z,63.08
2023-04-03T17:22:11.475Z,62.80
2023-04-03T17:24:38.081Z,62.87
2023-04-03T17:27:05.468Z,64.13
2023-04-03T17:29:32.378Z,64.67
2023-04-03T17:31:59.000Z,64.06
2023-04-03T17:34:25.863Z,63.94
2023-04-03T17:36:52.478Z,64.18
2023-04-03T17:39:19.182Z,63.72
2023-04-03T17:41:46.065Z,64.05
2023-04-03T17:44:13.285Z,64.09
2023-04-03T17:46:39.963Z,63.48
2023-04-03T17:49:06.752Z,63.04
2023-04-03T17:51:36.411Z,63.02
2023-04-03T17:54:03.082Z,63.29
2023-04-03T17:56:29.687Z,63.47
2023-04-03T17:58:58.052Z,64.13
2023-04-03T18:01:36.897Z,63.85
2023-04-03T18:04:05.210Z,64.75
2023-04-03T18:06:36.816Z,64.53
2023-04-03T18:09:15.195Z,64.13
2023-04-03T18:11:43.531Z,64.10
2023-04-03T18:14:11.131Z,63.87
2023-04-03T18:16:38.117Z,63.36
2023-04-03T18:21:36.150Z,62.91
2023-04-03T18:24:05.480Z,63.57
2023-04-03T18:26:32.136Z,63.02
2023-04-03T18:29:02.739Z,63.36
2023-04-03T18:31:33.077Z,62.99
2023-04-03T18:33:59.762Z,62.97
2023-04-03T18:36:27.582Z,63.05
2023-04-03T18:38:56.115Z,62.50
2023-04-03T18:41:27.568Z,62.96
2023-04-03T18:44:02.281Z,63.05
2023-04-03T18:46:29.711Z,63.32
2023-04-03T18:48:56.550Z,63.79
2023-04-03T18:51:23.478Z,64.16
2023-04-03T18:53:50.126Z,65.55
2023-04-03T18:56:16.892Z,65.54
2023-04-03T18:58:43.657Z,64.59
2023-04-03T19:01:10.876Z,65.31
2023-04-03T19:03:37.922Z,65.24
2023-04-03T19:06:05.286Z,65.85
2023-04-03T19:08:32.348Z,65.14
2023-04-03T19:10:59.389Z,65.76
2023-04-03T19:13:28.128Z,64.96
2023-04-03T19:15:58.979Z,64.81
2023-04-03T19:18:27.139Z,64.77
2023-04-03T19:20:59.003Z,64.77
2023-04-03T19:23:26.457Z,63.96
2023-04-03T19:26:00.913Z,64.39
2023-04-03T19:28:28.049Z,64.14
2023-04-03T19:30:54.854Z,63.51
2023-04-03T19:33:22.571Z,63.61
2023-04-03T19:35:49.513Z,63.11
2023-04-03T19:38:16.622Z,63.70
2023-04-03T19:40:43.895Z,64.12
2023-04-03T19:43:12.957Z,63.25
2023-04-03T19:45:40.960Z,63.49
2023-04-03T19:48:08.355Z,63.44
2023-04-03T19:50:36.101Z,63.43
2023-04-03T19:53:03.186Z,65.70
2023-04-03T19:55:32.772Z,66.39
2023-04-03T19:58:00.653Z,66.50
2023-04-03T20:00:29.115Z,66.63
2023-04-03T20:02:56.766Z,67.00
2023-04-03T20:05:24.167Z,67.32
2023-04-03T20:07:51.484Z,67.84
2023-04-03T20:10:18.509Z,67.86
2023-04-03T20:12:45.774Z,67.57
2023-04-03T20:15:13.431Z,67.09
2023-04-03T20:17:40.139Z,67.09
2023-04-03T20:20:07.435Z,67.53
2023-04-03T20:22:36.979Z,68.39
2023-04-03T20:25:06.970Z,67.71
2023-04-03T20:27:35.005Z,66.58
2023-04-03T20:30:04.237Z,66.85
2023-04-03T20:32:31.555Z,65.86
2023-04-03T20:35:04.192Z,65.78
2023-04-03T20:37:32.384Z,64.82
2023-04-03T20:39:58.957Z,65.80
2023-04-03T20:42:26.456Z,65.21
2023-04-03T20:44:53.138Z,65.36
2023-04-03T20:47:20.109Z,65.12
2023-04-03T20:49:46.876Z,64.54
2023-04-03T20:52:13.553Z,64.89
2023-04-03T20:54:40.842Z,65.00
2023-04-03T20:57:07.491Z,64.92
2023-04-03T20:59:35.145Z,65.27
2023-04-03T21:02:01.799Z,64.99
2023-04-03T21:04:36.681Z,64.88
2023-04-03T21:07:41.329Z,64.61
2023-04-03T21:10:46.564Z,64.83
2023-04-03T21:13:50.664Z,64.38
2023-04-03T21:16:17.220Z,64.51
2023-04-03T21:18:51.078Z,64.59
2023-04-03T21:21:23.264Z,64.01
2023-04-03T21:23:51.538Z,64.36
2023-04-03T21:26:19.125Z,65.68
2023-04-03T21:28:46.512Z,65.54
2023-04-03T21:31:15.020Z,66.71
2023-04-03T21:33:42.573Z,67.86
2023-04-03T21:36:12.386Z,68.02
2023-04-03T21:38:39.018Z,66.71
2023-04-03T21:41:05.719Z,65.93
2023-04-03T21:43:32.570Z,65.24
2023-04-03T21:46:00.007Z,65.97
2023-04-03T21:48:30.891Z,65.61
2023-04-03T21:51:07.138Z,67.41
2023-04-03T21:53:34.361Z,67.69
2023-04-03T21:56:02.459Z,69.77
2023-04-03T21:58:33.500Z,71.23
2023-04-03T22:01:11.391Z,72.68
2023-04-03T22:03:38.854Z,72.30
2023-04-03T22:06:05.728Z,71.90
2023-04-03T22:08:32.372Z,71.56
2023-04-03T22:11:07.108Z,72.40
2023-04-03T22:13:34.885Z,72.51
2023-04-03T22:16:02.496Z,71.99
2023-04-03T22:18:29.823Z,71.40
2023-04-03T22:20:56.481Z,69.90
2023-04-03T22:23:23.664Z,69.36
2023-04-03T22:26:04.138Z,69.29
2023-04-03T22:28:32.452Z,71.34
2023-04-03T22:31:04.051Z,71.65
2023-04-03T22:33:31.158Z,70.78
2023-04-03T22:35:57.936Z,70.54
2023-04-03T22:38:25.017Z,69.13
2023-04-03T22:41:02.244Z,68.55
2023-04-03T22:43:32.644Z,68.08
2023-04-03T22:46:04.495Z,67.50
2023-04-03T22:48:31.842Z,66.64
2023-04-03T22:50:59.962Z,65.88
2023-04-03T22:53:27.720Z,66.39
2023-04-03T22:55:56.037Z,65.90
2023-04-03T22:58:25.914Z,66.66
2023-04-03T23:01:04.596Z,68.12
2023-04-03T23:03:31.575Z,69.73
2023-04-03T23:05:58.398Z,69.88
2023-04-03T23:08:25.061Z,70.01
2023-04-03T23:10:56.614Z,71.05
2023-04-03T23:13:24.439Z,72.94
2023-04-03T23:15:55.251Z,74.32
2023-04-03T23:18:22.834Z,74.89
2023-04-03T23:20:54.382Z,74.74
2023-04-03T23:23:22.547Z,74.48
2023-04-03T23:25:58.739Z,74.87
2023-04-03T23:28:26.307Z,74.79
2023-04-03T23:31:06.023Z,73.87
2023-04-03T23:33:33.618Z,74.32
2023-04-03T23:36:07.285Z,75.23
2023-04-03T23:38:35.016Z,75.46
2023-04-03T23:41:01.837Z,75.60
2023-04-03T23:43:28.905Z,75.60
2023-04-03T23:45:55.554Z,76.06
2023-04-03T23:48:22.238Z,75.52
2023-04-03T23:50:48.828Z,74.16
2023-04-03T23:53:15.550Z,74.34
2023-04-03T23:55:42.257Z,74.02
2023-04-03T23:58:09.093Z,74.13
